createdAt,value
2018-02-24T00:02:15.808Z,25.08
2018-02-24T00:04:43.390Z,22.80
2018-02-24T00:07:10.966Z,23.52
2018-02-24T00:09:39.334Z,23.85
2018-02-24T00:12:07.683Z,24.20
2018-02-24T00:14:35.324Z,23.90
2018-02-24T00:17:03.687Z,21.42
2018-02-24T00:19:31.270Z,22.17
2018-02-24T00:21:58.878Z,22.27
2018-02-24T00:24:26.461Z,24.58
2018-02-24T00:26:54.072Z,23.48
2018-02-24T00:29:21.695Z,24.20
2018-02-24T00:31:49.303Z,21.17
2018-02-24T00:34:16.886Z,22.70
2018-02-24T00:36:44.528Z,22.77
2018-02-24T00:39:12.135Z,21.40
2018-02-24T00:41:39.711Z,24.40
2018-02-24T00:44:07.314Z,21.90
2018-02-24T00:46:35.663Z,23.55
2018-02-24T00:49:03.271Z,23.70
2018-02-24T00:51:30.859Z,21.77
2018-02-24T00:53:58.439Z,21.67
2018-02-24T00:56:26.051Z,22.27
2018-02-24T00:58:53.683Z,23.40
2018-02-24T01:01:21.298Z,23.12
2018-02-24T01:03:48.874Z,23.95
2018-02-24T01:06:16.471Z,23.25
2018-02-24T01:08:44.099Z,22.00
2018-02-24T01:11:11.726Z,21.35
2018-02-24T01:13:39.307Z,20.73
2018-02-24T01:16:06.901Z,22.75
2018-02-24T01:18:34.514Z,22.00
2018-02-24T01:21:02.102Z,22.10
2018-02-24T01:23:29.692Z,24.67
2018-02-24T01:25:57.290Z,21.75
2018-02-24T01:28:24.890Z,22.95
2018-02-24T01:30:52.471Z,21.52
2018-02-24T01:33:20.081Z,21.77
2018-02-24T01:35:47.666Z,23.48
2018-02-24T01:38:15.275Z,21.65
2018-02-24T01:40:42.858Z,23.60
2018-02-24T01:43:10.462Z,21.90
2018-02-24T01:45:38.044Z,23.45
2018-02-24T01:48:05.622Z,22.08
2018-02-24T01:50:41.779Z,22.42
2018-02-24T01:53:09.398Z,23.05
2018-02-24T01:55:36.978Z,22.35
2018-02-24T01:58:04.558Z,21.98
2018-02-24T02:00:32.186Z,21.75
2018-02-24T02:02:59.779Z,20.75
2018-02-24T02:05:27.362Z,22.87
2018-02-24T02:07:54.990Z,22.62
2018-02-24T02:10:23.333Z,23.95
2018-02-24T02:12:50.962Z,21.70
2018-02-24T02:15:18.621Z,22.23
2018-02-24T02:17:46.198Z,22.92
2018-02-24T02:20:14.542Z,22.02
2018-02-24T02:22:42.171Z,21.65
2018-02-24T02:25:09.751Z,21.90
2018-02-24T02:27:38.106Z,22.23
2018-02-24T02:30:06.495Z,22.23
2018-02-24T02:32:34.107Z,20.12
2018-02-24T02:35:01.687Z,20.42
2018-02-24T02:37:29.274Z,21.25
2018-02-24T02:39:56.880Z,21.12
2018-02-24T02:42:24.469Z,19.80
2018-02-24T02:44:52.046Z,21.95
2018-02-24T02:47:20.424Z,21.73
2018-02-24T02:49:48.046Z,21.50
2018-02-24T02:52:15.627Z,21.65
2018-02-24T02:54:43.211Z,20.70
2018-02-24T02:57:10.827Z,20.45
2018-02-24T02:59:38.411Z,23.12
2018-02-24T03:02:06.024Z,20.20
2018-02-24T03:04:33.625Z,20.33
2018-02-24T03:07:02.024Z,20.55
2018-02-24T03:09:29.603Z,19.08
2018-02-24T03:11:57.187Z,21.70
2018-02-24T03:14:25.568Z,19.55
2018-02-24T03:16:53.150Z,21.02
2018-02-24T03:19:20.771Z,23.85
2018-02-24T03:21:48.354Z,20.08
2018-02-24T03:24:15.961Z,20.95
2018-02-24T03:26:43.539Z,19.25
2018-02-24T03:29:11.173Z,19.55
2018-02-24T03:31:38.764Z,20.15
2018-02-24T03:34:06.347Z,20.25
2018-02-24T03:36:33.950Z,21.12
2018-02-24T03:39:01.530Z,20.92
2018-02-24T03:41:29.139Z,22.85
2018-02-24T03:43:56.774Z,21.15
2018-02-24T03:46:28.239Z,20.67
2018-02-24T03:48:56.591Z,20.98
2018-02-24T03:51:24.174Z,22.27
2018-02-24T03:53:51.774Z,21.40
2018-02-24T03:56:19.364Z,21.27
2018-02-24T03:58:46.946Z,20.85
2018-02-24T04:01:14.555Z,22.30
2018-02-24T04:03:42.134Z,22.10
2018-02-24T04:06:09.734Z,21.50
2018-02-24T04:08:38.082Z,21.40
2018-02-24T04:11:05.683Z,20.08
2018-02-24T04:13:33.267Z,22.25
2018-02-24T04:16:00.877Z,21.10
2018-02-24T04:18:28.487Z,21.42
2018-02-24T04:20:56.069Z,22.45
2018-02-24T04:23:23.678Z,22.13
2018-02-24T04:25:52.021Z,23.02
2018-02-24T04:28:19.647Z,22.87
2018-02-24T04:30:47.231Z,21.27
2018-02-24T04:33:15.596Z,22.20
2018-02-24T04:35:43.203Z,22.90
2018-02-24T04:38:10.785Z,23.95
2018-02-24T04:40:39.159Z,23.27
2018-02-24T04:43:06.743Z,24.20
2018-02-24T04:45:34.353Z,22.55
2018-02-24T04:48:01.931Z,22.83
2018-02-24T04:50:29.539Z,23.35
2018-02-24T04:52:57.123Z,24.17
2018-02-24T04:55:24.703Z,22.90
2018-02-24T04:57:52.311Z,22.90
2018-02-24T05:00:19.897Z,22.27
2018-02-24T05:02:48.278Z,23.02
2018-02-24T05:05:16.626Z,24.27
2018-02-24T05:07:44.236Z,23.67
2018-02-24T05:10:11.813Z,23.60
2018-02-24T05:12:39.419Z,23.12
2018-02-24T05:15:07.002Z,23.27
2018-02-24T05:17:34.583Z,24.70
2018-02-24T05:20:02.190Z,24.40
2018-02-24T05:22:29.775Z,24.55
2018-02-24T05:24:57.386Z,23.65
2018-02-24T05:27:24.967Z,24.27
2018-02-24T05:29:52.551Z,22.83
2018-02-24T05:32:20.152Z,24.02
2018-02-24T05:34:47.727Z,24.00
2018-02-24T05:37:15.336Z,24.45
2018-02-24T05:39:43.691Z,24.02
2018-02-24T05:42:12.062Z,25.35
2018-02-24T05:44:40.434Z,24.40
2018-02-24T05:47:08.038Z,24.77
2018-02-24T05:49:35.614Z,25.50
2018-02-24T05:52:03.954Z,24.15
2018-02-24T05:54:31.555Z,24.75
2018-02-24T05:56:59.134Z,25.02
2018-02-24T05:59:26.759Z,24.08
2018-02-24T06:01:54.338Z,24.10
2018-02-24T06:04:21.919Z,22.35
2018-02-24T06:06:49.526Z,25.08
2018-02-24T06:09:17.127Z,25.95
2018-02-24T06:11:44.710Z,26.90
2018-02-24T06:14:12.314Z,24.67
2018-02-24T06:16:39.926Z,25.80
2018-02-24T06:19:07.511Z,26.45
2018-02-24T06:21:35.101Z,24.40
2018-02-24T06:24:02.707Z,24.35
2018-02-24T06:26:30.302Z,24.58
2018-02-24T06:28:57.931Z,26.02
2018-02-24T06:31:25.515Z,25.42
2018-02-24T06:33:53.887Z,24.67
2018-02-24T06:36:21.476Z,26.92
2018-02-24T06:38:49.563Z,24.20
2018-02-24T06:41:17.149Z,25.65
2018-02-24T06:43:44.727Z,25.67
2018-02-24T06:46:12.372Z,25.20
2018-02-24T06:48:39.955Z,25.70
2018-02-24T06:51:08.319Z,25.37
2018-02-24T06:53:36.666Z,23.62
2018-02-24T06:56:04.274Z,25.50
2018-02-24T06:58:31.854Z,23.62
2018-02-24T07:00:59.480Z,25.17
2018-02-24T07:03:27.062Z,26.17
2018-02-24T07:05:54.642Z,25.20
2018-02-24T07:08:22.246Z,25.05
2018-02-24T07:10:49.830Z,25.73
2018-02-24T07:13:17.434Z,25.27
2018-02-24T07:15:45.139Z,24.92
2018-02-24T07:18:12.747Z,24.73
2018-02-24T07:20:41.115Z,23.92
2018-02-24T07:23:09.510Z,25.00
2018-02-24T07:25:37.099Z,23.90
2018-02-24T07:28:04.878Z,24.48
2018-02-24T07:30:33.286Z,22.62
2018-02-24T07:33:00.871Z,22.65
2018-02-24T07:35:28.483Z,25.25
2018-02-24T07:37:56.067Z,26.55
2018-02-24T07:40:23.687Z,26.10
2018-02-24T07:42:51.268Z,24.42
2018-02-24T07:45:19.617Z,24.75
2018-02-24T07:47:47.218Z,23.75
2018-02-24T07:50:14.818Z,25.05
2018-02-24T07:52:43.186Z,24.00
2018-02-24T07:55:11.590Z,24.65
2018-02-24T07:57:39.166Z,23.75
2018-02-24T08:00:06.751Z,22.05
2018-02-24T08:02:35.117Z,22.00
2018-02-24T08:05:03.487Z,23.50
2018-02-24T08:07:31.107Z,24.83
2018-02-24T08:09:58.682Z,23.23
2018-02-24T08:12:26.264Z,24.20
2018-02-24T08:14:53.878Z,25.83
2018-02-24T08:17:21.463Z,23.17
2018-02-24T08:19:49.042Z,23.48
2018-02-24T08:22:17.431Z,25.45
2018-02-24T08:24:45.015Z,24.10
2018-02-24T08:27:12.663Z,24.25
2018-02-24T08:29:40.271Z,23.23
2018-02-24T08:32:07.857Z,22.33
2018-02-24T08:34:35.439Z,24.67
2018-02-24T08:37:03.815Z,22.73
2018-02-24T08:39:32.186Z,23.70
2018-02-24T08:41:59.768Z,22.77
2018-02-24T08:44:27.379Z,21.87
2018-02-24T08:46:54.987Z,23.17
2018-02-24T08:49:22.590Z,23.00
2018-02-24T08:51:50.179Z,24.02
2018-02-24T08:54:17.798Z,21.98
2018-02-24T08:56:45.383Z,21.58
2018-02-24T08:59:12.986Z,20.10
2018-02-24T09:01:40.596Z,21.50
2018-02-24T09:04:08.323Z,23.17
2018-02-24T09:06:35.926Z,22.30
2018-02-24T09:09:03.518Z,19.62
2018-02-24T09:11:31.150Z,20.80
2018-02-24T09:13:58.780Z,19.20
2018-02-24T09:16:26.650Z,20.05
2018-02-24T09:18:54.390Z,18.00
2018-02-24T09:21:21.984Z,19.10
2018-02-24T09:23:49.639Z,18.33
2018-02-24T09:26:17.420Z,19.70
2018-02-24T09:28:45.013Z,18.52
2018-02-24T09:31:13.382Z,18.60
2018-02-24T09:33:41.831Z,18.02
2018-02-24T09:36:10.507Z,17.33
2018-02-24T09:38:38.859Z,16.58
2018-02-24T09:41:06.468Z,16.40
2018-02-24T09:43:34.079Z,17.65
2018-02-24T09:46:01.960Z,18.10
2018-02-24T09:48:29.780Z,17.37
2018-02-24T09:50:57.372Z,16.50
2018-02-24T09:53:24.955Z,16.75
2018-02-24T09:55:53.342Z,17.20
2018-02-24T09:58:21.078Z,17.10
2018-02-24T10:00:49.418Z,17.65
2018-02-24T10:03:17.019Z,17.25
2018-02-24T10:05:44.615Z,17.80
2018-02-24T10:08:12.292Z,16.87
2018-02-24T10:10:40.832Z,16.92
2018-02-24T10:13:09.439Z,17.45
2018-02-24T10:15:37.046Z,16.33
2018-02-24T10:18:04.651Z,18.87
2018-02-24T10:20:32.344Z,16.50
2018-02-24T10:23:00.741Z,15.68
2018-02-24T10:25:28.326Z,15.98
2018-02-24T10:27:55.968Z,16.10
2018-02-24T10:30:23.834Z,16.42
2018-02-24T10:32:51.450Z,16.00
2018-02-24T10:35:19.979Z,16.00
2018-02-24T10:37:48.331Z,16.40
2018-02-24T10:40:15.938Z,15.20
2018-02-24T10:42:43.523Z,15.52
2018-02-24T10:45:11.107Z,16.33
2018-02-24T10:47:38.719Z,17.45
2018-02-24T10:50:07.067Z,16.80
2018-02-24T10:52:34.651Z,17.00
2018-02-24T10:55:02.259Z,17.20
2018-02-24T10:57:29.897Z,18.30
2018-02-24T10:59:57.503Z,17.15
2018-02-24T11:02:25.088Z,17.60
2018-02-24T11:04:52.710Z,17.65
2018-02-24T11:07:20.292Z,17.80
2018-02-24T11:09:47.883Z,17.27
2018-02-24T11:12:15.493Z,19.10
2018-02-24T11:14:43.934Z,18.58
2018-02-24T11:17:11.547Z,18.10
2018-02-24T11:19:39.131Z,17.08
2018-02-24T11:22:06.743Z,17.02
2018-02-24T11:24:34.339Z,17.10
2018-02-24T11:27:01.947Z,16.65
2018-02-24T11:29:29.555Z,15.23
2018-02-24T11:31:57.903Z,16.27
2018-02-24T11:34:26.275Z,17.55
2018-02-24T11:36:54.627Z,15.70
2018-02-24T11:39:27.907Z,15.75
2018-02-24T11:41:56.266Z,15.60
2018-02-24T11:44:23.847Z,14.60
2018-02-24T11:46:51.487Z,15.27
2018-02-24T11:49:19.072Z,14.13
2018-02-24T11:51:46.659Z,16.77
2018-02-24T11:54:14.287Z,16.52
2018-02-24T11:56:41.907Z,15.27
2018-02-24T11:59:09.538Z,15.45
2018-02-24T12:01:37.119Z,15.73
2018-02-24T12:04:04.727Z,16.05
2018-02-24T12:06:32.337Z,15.60
2018-02-24T12:09:00.722Z,16.20
2018-02-24T12:11:28.327Z,17.15
2018-02-24T12:13:56.708Z,16.00
2018-02-24T12:16:25.119Z,15.75
2018-02-24T12:18:52.731Z,17.00
2018-02-24T12:21:21.079Z,16.05
2018-02-24T12:23:49.431Z,15.38
2018-02-24T12:26:17.071Z,15.73
2018-02-24T12:28:44.690Z,14.75
2018-02-24T12:31:12.267Z,15.05
2018-02-24T12:33:39.854Z,14.73
2018-02-24T12:36:07.472Z,15.80
2018-02-24T12:38:35.823Z,14.73
2018-02-24T12:41:03.428Z,14.75
2018-02-24T12:43:31.034Z,15.90
2018-02-24T12:45:59.387Z,15.07
2018-02-24T12:48:26.994Z,14.87
2018-02-24T12:50:54.608Z,15.07
2018-02-24T12:53:22.192Z,14.90
2018-02-24T12:55:49.814Z,14.65
2018-02-24T12:58:17.398Z,15.35
2018-02-24T13:00:44.978Z,14.45
2018-02-24T13:03:13.351Z,14.55
2018-02-24T13:05:40.935Z,13.45
2018-02-24T13:08:08.543Z,14.90
2018-02-24T13:10:36.132Z,13.88
2018-02-24T13:13:03.770Z,14.60
2018-02-24T13:15:31.379Z,13.77
2018-02-24T13:17:59.728Z,14.30
2018-02-24T13:20:28.104Z,15.00
2018-02-24T13:22:56.478Z,15.45
2018-02-24T13:25:24.149Z,13.98
2018-02-24T13:27:51.712Z,13.27
2018-02-24T13:30:19.319Z,12.80
2018-02-24T13:32:46.903Z,13.70
2018-02-24T13:35:14.515Z,14.18
2018-02-24T13:37:42.103Z,13.32
2018-02-24T13:40:09.707Z,14.73
2018-02-24T13:42:37.391Z,11.80
2018-02-24T13:45:05.157Z,13.10
2018-02-24T13:47:32.750Z,12.48
2018-02-24T13:50:00.379Z,12.73
2018-02-24T13:52:28.925Z,15.45
2018-02-24T13:54:56.756Z,14.18
2018-02-24T13:57:24.418Z,12.63
2018-02-24T13:59:52.019Z,13.95
2018-02-24T14:02:19.648Z,12.85
2018-02-24T14:04:47.344Z,13.45
2018-02-24T14:07:14.931Z,11.95
2018-02-24T14:09:43.307Z,13.65
2018-02-24T14:12:10.896Z,12.80
2018-02-24T14:14:38.479Z,12.40
2018-02-24T14:17:06.856Z,11.93
2018-02-24T14:19:34.458Z,12.25
2018-02-24T14:22:02.064Z,13.30
2018-02-24T14:24:29.683Z,12.73
2018-02-24T14:26:58.117Z,12.65
2018-02-24T14:29:25.699Z,11.93
2018-02-24T14:31:54.080Z,11.93
2018-02-24T14:34:21.678Z,10.18
2018-02-24T14:36:50.271Z,12.43
2018-02-24T14:39:18.614Z,11.73
2018-02-24T14:41:46.191Z,9.48
2018-02-24T14:44:15.600Z,10.57
2018-02-24T14:46:43.179Z,11.80
2018-02-24T14:49:10.791Z,12.10
2018-02-24T14:51:38.375Z,12.18
2018-02-24T14:54:06.000Z,11.85
2018-02-24T14:56:33.587Z,11.20
2018-02-24T14:59:01.218Z,11.88
2018-02-24T15:01:28.851Z,11.27
2018-02-24T15:03:56.430Z,13.48
2018-02-24T15:06:24.015Z,11.18
2018-02-24T15:08:51.627Z,11.20
2018-02-24T15:11:19.237Z,11.07
2018-02-24T15:13:46.847Z,11.12
2018-02-24T15:16:14.536Z,11.35
2018-02-24T15:18:42.175Z,12.70
2018-02-24T15:21:09.794Z,10.93
2018-02-24T15:23:37.379Z,11.52
2018-02-24T15:26:04.964Z,12.00
2018-02-24T15:28:33.340Z,12.05
2018-02-24T15:31:00.919Z,10.95
2018-02-24T15:33:28.569Z,11.20
2018-02-24T15:35:56.175Z,11.98
2018-02-24T15:38:23.801Z,11.12
2018-02-24T15:40:52.159Z,10.75
2018-02-24T15:43:19.743Z,12.07
2018-02-24T15:45:47.363Z,12.80
2018-02-24T15:48:15.715Z,10.95
2018-02-24T15:50:43.295Z,11.75
2018-02-24T15:53:11.802Z,10.10
2018-02-24T15:55:39.384Z,9.93
2018-02-24T15:58:07.731Z,10.90
2018-02-24T16:00:35.351Z,11.30
2018-02-24T16:03:02.936Z,11.07
2018-02-24T16:05:31.311Z,11.27
2018-02-24T16:07:59.700Z,10.30
2018-02-24T16:10:27.284Z,10.95
2018-02-24T16:12:54.894Z,10.27
2018-02-24T16:15:22.477Z,10.18
2018-02-24T16:17:50.099Z,10.53
2018-02-24T16:20:17.916Z,12.40
2018-02-24T16:22:45.511Z,11.88
2018-02-24T16:25:13.121Z,10.40
2018-02-24T16:27:40.711Z,11.77
2018-02-24T16:30:08.331Z,11.45
2018-02-24T16:32:35.911Z,11.70
2018-02-24T16:35:03.520Z,11.20
2018-02-24T16:37:31.160Z,10.55
2018-02-24T16:39:58.747Z,10.27
2018-02-24T16:42:26.368Z,11.00
2018-02-24T16:44:53.954Z,11.05
2018-02-24T16:47:22.335Z,10.80
2018-02-24T16:49:50.683Z,10.05
2018-02-24T16:52:18.279Z,10.63
2018-02-24T16:54:45.907Z,10.30
2018-02-24T16:57:14.263Z,10.90
2018-02-24T16:59:42.615Z,10.25
2018-02-24T17:02:10.223Z,11.18
2018-02-24T17:04:37.826Z,10.57
2018-02-24T17:07:06.167Z,11.10
2018-02-24T17:09:33.827Z,11.18
2018-02-24T17:12:02.194Z,11.05
2018-02-24T17:14:30.556Z,11.30
2018-02-24T17:16:59.542Z,9.80
2018-02-24T17:19:27.895Z,9.85
2018-02-24T17:21:56.239Z,10.65
2018-02-24T17:24:23.850Z,10.48
2018-02-24T17:26:51.431Z,9.73
2018-02-24T17:29:19.042Z,10.60
2018-02-24T17:31:46.619Z,9.95
2018-02-24T17:34:14.224Z,9.57
2018-02-24T17:36:41.814Z,9.98
2018-02-24T17:39:09.426Z,10.55
2018-02-24T17:41:37.007Z,9.27
2018-02-24T17:44:04.623Z,8.68
2018-02-24T17:46:32.239Z,8.57
2018-02-24T17:48:59.815Z,8.70
2018-02-24T17:51:27.414Z,8.30
2018-02-24T17:53:55.754Z,8.13
2018-02-24T17:56:23.355Z,8.55
2018-02-24T17:58:50.938Z,8.20
2018-02-24T18:01:18.518Z,8.60
2018-02-24T18:03:46.887Z,7.25
2018-02-24T18:06:14.471Z,7.87
2018-02-24T18:08:42.071Z,8.52
2018-02-24T18:11:10.467Z,7.60
2018-02-24T18:13:38.105Z,8.90
2018-02-24T18:16:06.189Z,7.40
2018-02-24T18:18:34.043Z,8.25
2018-02-24T18:21:02.499Z,9.00
2018-02-24T18:23:30.082Z,8.27
2018-02-24T18:25:57.687Z,8.32
2018-02-24T18:28:25.286Z,7.57
2018-02-24T18:30:53.663Z,8.57
2018-02-24T18:33:21.258Z,8.02
2018-02-24T18:35:48.855Z,8.15
2018-02-24T18:38:17.198Z,8.15
2018-02-24T18:40:44.815Z,8.02
2018-02-24T18:43:12.822Z,8.10
2018-02-24T18:45:40.477Z,8.50
2018-02-24T18:48:08.059Z,8.55
2018-02-24T18:50:35.639Z,8.32
2018-02-24T18:53:04.015Z,7.87
2018-02-24T18:55:32.387Z,7.72
2018-02-24T18:57:59.971Z,8.20
2018-02-24T19:00:27.591Z,7.65
2018-02-24T19:02:55.171Z,8.00
2018-02-24T19:05:22.751Z,8.20
2018-02-24T19:07:51.119Z,7.50
2018-02-24T19:10:19.462Z,7.47
2018-02-24T19:12:47.068Z,8.50
2018-02-24T19:15:14.651Z,7.00
2018-02-24T19:17:42.255Z,7.68
2018-02-24T19:20:09.835Z,7.93
2018-02-24T19:22:37.455Z,7.82
2018-02-24T19:25:05.065Z,6.95
2018-02-24T19:27:33.412Z,8.00
2018-02-24T19:30:01.026Z,7.72
2018-02-24T19:32:28.598Z,7.12
2018-02-24T19:34:56.181Z,6.35
2018-02-24T19:37:23.801Z,6.85
2018-02-24T19:39:52.147Z,8.48
2018-02-24T19:42:19.731Z,7.65
2018-02-24T19:44:47.335Z,7.85
2018-02-24T19:47:14.944Z,7.70
2018-02-24T19:49:42.524Z,6.82
2018-02-24T19:52:10.123Z,6.40
2018-02-24T19:54:37.700Z,6.72
2018-02-24T19:57:05.275Z,7.30
2018-02-24T19:59:32.885Z,8.10
2018-02-24T20:02:01.457Z,7.40
2018-02-24T20:04:29.085Z,8.23
2018-02-24T20:06:56.664Z,7.37
2018-02-24T20:09:24.247Z,7.03
2018-02-24T20:11:52.615Z,6.50
2018-02-24T20:14:20.960Z,6.85
2018-02-24T20:16:48.563Z,7.00
2018-02-24T20:19:16.147Z,7.93
2018-02-24T20:21:43.747Z,7.57
2018-02-24T20:24:11.378Z,8.45
2018-02-24T20:26:38.959Z,7.28
2018-02-24T20:29:06.583Z,7.30
2018-02-24T20:31:34.173Z,7.57
2018-02-24T20:34:01.751Z,7.50
2018-02-24T20:36:29.363Z,7.20
2018-02-24T20:38:57.006Z,6.90
2018-02-24T20:41:24.593Z,8.25
2018-02-24T20:43:52.203Z,8.30
2018-02-24T20:46:19.811Z,7.47
2018-02-24T20:48:47.395Z,8.10
2018-02-24T20:51:15.794Z,8.40
2018-02-24T20:53:43.375Z,7.90
2018-02-24T20:56:10.964Z,7.82
2018-02-24T20:58:39.343Z,8.48
2018-02-24T21:01:07.690Z,7.87
2018-02-24T21:03:36.171Z,7.10
2018-02-24T21:06:04.618Z,7.50
2018-02-24T21:08:32.280Z,7.25
2018-02-24T21:11:01.184Z,7.20
2018-02-24T21:13:28.763Z,7.62
2018-02-24T21:15:57.691Z,7.20
2018-02-24T21:18:26.047Z,7.28
2018-02-24T21:20:53.659Z,6.25
2018-02-24T21:23:21.247Z,7.15
2018-02-24T21:25:48.831Z,7.05
2018-02-24T21:28:16.440Z,7.28
2018-02-24T21:30:44.195Z,6.78
2018-02-24T21:33:11.799Z,6.47
2018-02-24T21:35:39.378Z,7.75
2018-02-24T21:38:06.995Z,7.82
2018-02-24T21:40:34.622Z,6.55
2018-02-24T21:43:02.208Z,5.70
2018-02-24T21:45:30.601Z,6.95
2018-02-24T21:47:58.191Z,6.68
2018-02-24T21:50:25.770Z,6.68
2018-02-24T21:52:54.143Z,6.10
2018-02-24T21:55:21.722Z,7.00
2018-02-24T21:57:49.322Z,6.45
2018-02-24T22:00:17.662Z,6.15
2018-02-24T22:02:45.240Z,6.35
2018-02-24T22:05:12.934Z,6.80
2018-02-24T22:07:41.379Z,6.30
2018-02-24T22:10:09.142Z,6.40
2018-02-24T22:12:36.743Z,7.35
2018-02-24T22:15:05.130Z,6.20
2018-02-24T22:17:32.721Z,5.80
2018-02-24T22:20:00.327Z,5.72
2018-02-24T22:22:27.903Z,5.50
2018-02-24T22:24:55.474Z,6.25
2018-02-24T22:27:23.077Z,5.37
2018-02-24T22:29:50.650Z,5.45
2018-02-24T22:32:18.260Z,5.45
2018-02-24T22:34:45.830Z,5.87
2018-02-24T22:37:13.411Z,5.32
2018-02-24T22:39:41.795Z,6.40
2018-02-24T22:42:09.371Z,6.40
2018-02-24T22:44:36.962Z,5.90
2018-02-24T22:47:04.580Z,7.35
2018-02-24T22:49:32.151Z,6.28
2018-02-24T22:52:00.495Z,6.70
2018-02-24T22:54:28.125Z,5.78
2018-02-24T22:56:55.703Z,6.28
2018-02-24T22:59:23.278Z,5.95
2018-02-24T23:01:50.880Z,5.60
2018-02-24T23:04:18.455Z,6.10
2018-02-24T23:06:46.835Z,6.00
2018-02-24T23:09:14.407Z,5.90
2018-02-24T23:11:41.989Z,6.62
2018-02-24T23:14:09.587Z,6.22
2018-02-24T23:16:37.195Z,5.30
2018-02-24T23:19:05.560Z,6.05
2018-02-24T23:21:33.922Z,5.95
2018-02-24T23:24:02.257Z,5.85
2018-02-24T23:26:29.860Z,6.50
2018-02-24T23:28:57.642Z,5.55
2018-02-24T23:31:25.242Z,6.10
2018-02-24T23:33:52.814Z,5.90
2018-02-24T23:36:20.424Z,5.72
2018-02-24T23:38:48.807Z,6.07
2018-02-24T23:41:16.410Z,5.07
2018-02-24T23:43:43.987Z,5.82
2018-02-24T23:46:11.587Z,5.85
2018-02-24T23:48:39.187Z,5.72
2018-02-24T23:51:06.816Z,6.32
2018-02-24T23:53:35.159Z,6.12
2018-02-24T23:56:02.737Z,6.03
2018-02-24T23:58:30.338Z,5.30
